createdAt,value
2023-12-11T00:00:25.293Z,100.00
2023-12-11T00:01:22.120Z,100.00
2023-12-11T00:02:18.916Z,100.00
2023-12-11T00:03:15.590Z,100.00
2023-12-11T00:04:15.168Z,100.00
2023-12-11T00:05:11.944Z,100.00
2023-12-11T00:06:08.811Z,100.00
2023-12-11T00:07:05.494Z,100.00
2023-12-11T00:08:02.220Z,100.00
2023-12-11T00:08:58.903Z,100.00
2023-12-11T00:09:55.769Z,100.00
2023-12-11T00:10:52.591Z,100.00
2023-12-11T00:11:49.258Z,100.00
2023-12-11T00:12:45.920Z,100.00
2023-12-11T00:13:42.726Z,100.00
2023-12-11T00:14:39.365Z,100.00
2023-12-11T00:15:36.021Z,100.00
2023-12-11T00:16:32.726Z,100.00
2023-12-11T00:17:30.249Z,100.00
2023-12-11T00:18:27.229Z,100.00
2023-12-11T00:19:24.148Z,100.00
2023-12-11T00:20:20.911Z,100.00
2023-12-11T00:21:17.706Z,100.00
2023-12-11T00:22:14.384Z,100.00
2023-12-11T00:23:11.086Z,100.00
2023-12-11T00:24:07.802Z,100.00
2023-12-11T00:25:05.937Z,100.00
2023-12-11T00:26:02.588Z,100.00
2023-12-11T00:26:59.250Z,100.00
2023-12-11T00:27:56.154Z,100.00
2023-12-11T00:28:53.330Z,100.00
2023-12-11T00:29:50.705Z,100.00
2023-12-11T00:30:47.422Z,100.00
2023-12-11T00:31:44.191Z,100.00
2023-12-11T00:32:40.922Z,100.00
2023-12-11T00:33:37.964Z,100.00
2023-12-11T00:34:34.855Z,100.00
2023-12-11T00:35:31.568Z,100.00
2023-12-11T00:36:28.422Z,100.00
2023-12-11T00:37:25.197Z,100.00
2023-12-11T00:38:21.889Z,100.00
2023-12-11T00:39:18.591Z,100.00
2023-12-11T00:40:15.413Z,100.00
2023-12-11T00:41:12.400Z,100.00
2023-12-11T00:42:09.073Z,100.00
2023-12-11T00:43:05.873Z,100.00
2023-12-11T00:44:02.535Z,100.00
2023-12-11T00:44:59.302Z,100.00
2023-12-11T00:45:55.980Z,100.00
2023-12-11T00:46:52.647Z,100.00
2023-12-11T00:47:49.354Z,100.00
2023-12-11T00:48:46.367Z,100.00
2023-12-11T00:49:43.872Z,100.00
2023-12-11T00:50:40.592Z,100.00
2023-12-11T00:51:37.260Z,100.00
2023-12-11T00:52:34.010Z,100.00
2023-12-11T00:53:30.680Z,100.00
2023-12-11T00:54:27.525Z,100.00
2023-12-11T00:55:24.218Z,100.00
2023-12-11T00:56:20.949Z,100.00
2023-12-11T00:57:17.673Z,100.00
2023-12-11T00:58:14.439Z,100.00
2023-12-11T00:59:11.134Z,100.00
2023-12-11T01:00:08.539Z,100.00
2023-12-11T01:01:06.325Z,100.00
2023-12-11T01:02:03.136Z,100.00
2023-12-11T01:02:59.896Z,100.00
2023-12-11T01:03:56.685Z,100.00
2023-12-11T01:04:53.433Z,100.00
2023-12-11T01:05:50.164Z,100.00
2023-12-11T01:06:46.859Z,100.00
2023-12-11T01:07:43.554Z,100.00
2023-12-11T01:08:41.008Z,100.00
2023-12-11T01:09:38.273Z,100.00
2023-12-11T01:10:35.033Z,100.00
2023-12-11T01:11:31.713Z,100.00
2023-12-11T01:12:28.495Z,100.00
2023-12-11T01:13:26.068Z,100.00
2023-12-11T01:14:22.771Z,100.00
2023-12-11T01:15:19.532Z,100.00
2023-12-11T01:16:16.190Z,100.00
2023-12-11T01:17:36.961Z,100.00
2023-12-11T01:18:30.005Z,100.00
2023-12-11T01:19:27.025Z,100.00
2023-12-11T01:20:23.757Z,100.00
2023-12-11T01:21:20.457Z,100.00
2023-12-11T01:22:17.218Z,100.00
2023-12-11T01:23:13.967Z,100.00
2023-12-11T01:24:10.698Z,100.00
2023-12-11T01:25:09.820Z,100.00
2023-12-11T01:26:06.689Z,100.00
2023-12-11T01:27:04.568Z,100.00
2023-12-11T01:28:01.261Z,100.00
2023-12-11T01:28:58.039Z,100.00
2023-12-11T01:29:54.733Z,100.00
2023-12-11T01:30:51.428Z,100.00
2023-12-11T01:31:48.162Z,100.00
2023-12-11T01:32:44.861Z,100.00
2023-12-11T01:33:41.574Z,100.00
2023-12-11T01:34:38.476Z,100.00
2023-12-11T01:35:35.415Z,100.00
2023-12-11T01:36:32.131Z,100.00
2023-12-11T01:37:28.977Z,100.00
2023-12-11T01:38:25.818Z,100.00
2023-12-11T01:39:22.570Z,100.00
2023-12-11T01:40:19.339Z,100.00
2023-12-11T01:41:16.077Z,100.00
2023-12-11T01:42:12.756Z,100.00
2023-12-11T01:43:17.664Z,100.00
2023-12-11T01:44:15.816Z,100.00
2023-12-11T01:45:12.738Z,100.00
2023-12-11T01:46:14.896Z,100.00
2023-12-11T01:47:11.900Z,100.00
2023-12-11T01:48:12.731Z,100.00
2023-12-11T01:49:10.136Z,100.00
2023-12-11T01:50:09.535Z,100.00
2023-12-11T01:51:08.286Z,100.00
2023-12-11T01:52:07.019Z,100.00
2023-12-11T01:53:04.761Z,100.00
2023-12-11T01:54:02.058Z,100.00
2023-12-11T01:54:58.867Z,100.00
2023-12-11T01:55:55.828Z,100.00
2023-12-11T01:56:52.796Z,100.00
2023-12-11T01:57:49.521Z,100.00
2023-12-11T01:58:47.007Z,100.00
2023-12-11T01:59:46.771Z,100.00
2023-12-11T02:00:45.665Z,100.00
2023-12-11T02:01:45.242Z,100.00
2023-12-11T02:02:42.608Z,100.00
2023-12-11T02:03:40.057Z,100.00
2023-12-11T02:04:36.937Z,100.00
2023-12-11T02:05:33.702Z,100.00
2023-12-11T02:06:30.435Z,100.00
2023-12-11T02:07:27.394Z,100.00
2023-12-11T02:08:24.748Z,100.00
2023-12-11T02:09:21.438Z,100.00
2023-12-11T02:10:18.199Z,100.00
2023-12-11T02:11:15.284Z,100.00
2023-12-11T02:12:12.247Z,100.00
2023-12-11T02:13:09.432Z,100.00
2023-12-11T02:14:06.103Z,100.00
2023-12-11T02:15:02.766Z,100.00
2023-12-11T02:15:59.559Z,100.00
2023-12-11T02:16:56.208Z,100.00
2023-12-11T02:17:52.960Z,100.00
2023-12-11T02:18:49.962Z,100.00
2023-12-11T02:19:46.808Z,100.00
2023-12-11T02:20:44.811Z,100.00
2023-12-11T02:21:41.476Z,100.00
2023-12-11T02:22:38.565Z,100.00
2023-12-11T02:23:41.268Z,100.00
2023-12-11T02:24:47.156Z,100.00
2023-12-11T02:25:47.098Z,100.00
2023-12-11T02:26:44.395Z,100.00
2023-12-11T02:27:41.094Z,100.00
2023-12-11T02:28:37.838Z,100.00
2023-12-11T02:29:34.480Z,100.00
2023-12-11T02:30:36.795Z,100.00
2023-12-11T02:31:33.469Z,100.00
2023-12-11T02:32:30.204Z,100.00
2023-12-11T02:33:27.132Z,100.00
2023-12-11T02:34:23.937Z,100.00
2023-12-11T02:35:20.721Z,100.00
2023-12-11T02:36:17.541Z,100.00
2023-12-11T02:37:14.977Z,100.00
2023-12-11T02:38:11.736Z,100.00
2023-12-11T02:39:08.716Z,100.00
2023-12-11T02:40:06.316Z,100.00
2023-12-11T02:41:03.513Z,100.00
2023-12-11T02:42:00.250Z,100.00
2023-12-11T02:42:57.036Z,100.00
2023-12-11T02:43:53.742Z,100.00
2023-12-11T02:44:50.424Z,100.00
2023-12-11T02:45:47.148Z,100.00
2023-12-11T02:46:43.857Z,100.00
2023-12-11T02:47:40.597Z,100.00
2023-12-11T02:48:37.489Z,100.00
2023-12-11T02:49:34.370Z,100.00
2023-12-11T02:50:32.071Z,100.00
2023-12-11T02:51:28.763Z,100.00
2023-12-11T02:52:25.458Z,100.00
2023-12-11T02:53:22.184Z,100.00
2023-12-11T02:54:18.899Z,100.00
2023-12-11T02:55:15.769Z,100.00
2023-12-11T02:56:12.501Z,100.00
2023-12-11T02:57:09.136Z,100.00
2023-12-11T02:58:05.913Z,100.00
2023-12-11T02:59:02.577Z,100.00
2023-12-11T02:59:59.215Z,100.00
2023-12-11T03:00:56.058Z,100.00
2023-12-11T03:01:52.792Z,100.00
2023-12-11T03:02:49.546Z,100.00
2023-12-11T03:03:46.286Z,100.00
2023-12-11T03:04:43.151Z,100.00
2023-12-11T03:05:39.986Z,100.00
2023-12-11T03:06:36.832Z,100.00
2023-12-11T03:07:33.540Z,100.00
2023-12-11T03:08:30.288Z,100.00
2023-12-11T03:09:26.975Z,100.00
2023-12-11T03:10:23.963Z,100.00
2023-12-11T03:11:20.635Z,100.00
2023-12-11T03:12:17.405Z,100.00
2023-12-11T03:13:14.093Z,100.00
2023-12-11T03:14:10.762Z,100.00
2023-12-11T03:15:08.654Z,100.00
2023-12-11T03:16:05.625Z,100.00
2023-12-11T03:17:02.316Z,100.00
2023-12-11T03:17:59.843Z,100.00
2023-12-11T03:18:56.703Z,100.00
2023-12-11T03:19:54.108Z,100.00
2023-12-11T03:20:50.820Z,100.00
2023-12-11T03:21:47.589Z,100.00
2023-12-11T03:22:44.369Z,100.00
2023-12-11T03:23:41.194Z,100.00
2023-12-11T03:24:37.953Z,100.00
2023-12-11T03:25:34.632Z,100.00
2023-12-11T03:26:31.529Z,100.00
2023-12-11T03:27:28.340Z,100.00
2023-12-11T03:28:26.389Z,100.00
2023-12-11T03:29:23.104Z,100.00
2023-12-11T03:30:19.785Z,100.00
2023-12-11T03:31:16.442Z,100.00
2023-12-11T03:32:13.230Z,100.00
2023-12-11T03:33:09.911Z,100.00
2023-12-11T03:34:06.733Z,100.00
2023-12-11T03:35:04.547Z,100.00
2023-12-11T03:36:01.244Z,100.00
2023-12-11T03:36:58.023Z,100.00
2023-12-11T03:37:54.702Z,100.00
2023-12-11T03:38:51.386Z,100.00
2023-12-11T03:39:48.073Z,100.00
2023-12-11T03:40:44.794Z,100.00
2023-12-11T03:41:41.467Z,100.00
2023-12-11T03:42:38.201Z,100.00
2023-12-11T03:43:34.919Z,100.00
2023-12-11T03:44:31.578Z,100.00
2023-12-11T03:45:28.366Z,100.00
2023-12-11T03:46:25.130Z,100.00
2023-12-11T03:47:23.162Z,100.00
2023-12-11T03:48:19.921Z,100.00
2023-12-11T03:49:18.093Z,100.00
2023-12-11T03:50:15.073Z,100.00
2023-12-11T03:51:11.737Z,100.00
2023-12-11T03:52:08.549Z,100.00
2023-12-11T03:53:05.247Z,100.00
2023-12-11T03:54:02.068Z,100.00
2023-12-11T03:54:59.197Z,100.00
2023-12-11T03:55:55.976Z,100.00
2023-12-11T03:56:52.627Z,100.00
2023-12-11T03:57:49.275Z,100.00
2023-12-11T03:58:45.963Z,100.00
2023-12-11T03:59:42.704Z,100.00
2023-12-11T04:00:39.478Z,100.00
2023-12-11T04:01:36.417Z,100.00
2023-12-11T04:02:33.251Z,100.00
2023-12-11T04:03:30.060Z,100.00
2023-12-11T04:04:26.879Z,100.00
2023-12-11T04:05:23.649Z,100.00
2023-12-11T04:06:20.379Z,100.00
2023-12-11T04:07:17.188Z,100.00
2023-12-11T04:08:13.912Z,100.00
2023-12-11T04:09:10.614Z,100.00
2023-12-11T04:10:07.963Z,100.00
2023-12-11T04:11:04.870Z,100.00
2023-12-11T04:12:01.544Z,100.00
2023-12-11T04:13:00.802Z,100.00
2023-12-11T04:13:57.531Z,100.00
2023-12-11T04:14:54.159Z,100.00
2023-12-11T04:15:50.868Z,100.00
2023-12-11T04:16:47.595Z,100.00
2023-12-11T04:17:44.476Z,100.00
2023-12-11T04:18:42.373Z,100.00
2023-12-11T04:19:39.199Z,100.00
2023-12-11T04:20:36.002Z,100.00
2023-12-11T04:21:32.881Z,100.00
2023-12-11T04:22:29.602Z,100.00
2023-12-11T04:23:26.300Z,100.00
2023-12-11T04:24:23.007Z,100.00
2023-12-11T04:25:19.746Z,100.00
2023-12-11T04:26:16.408Z,100.00
2023-12-11T04:27:13.101Z,100.00
2023-12-11T04:28:09.852Z,100.00
2023-12-11T04:29:06.747Z,100.00
2023-12-11T04:30:03.663Z,100.00
2023-12-11T04:31:00.393Z,100.00
2023-12-11T04:31:57.069Z,100.00
2023-12-11T04:32:53.868Z,100.00
2023-12-11T04:33:51.391Z,100.00
2023-12-11T04:34:48.204Z,100.00
2023-12-11T04:35:49.046Z,100.00
2023-12-11T04:36:47.939Z,100.00
2023-12-11T04:37:44.713Z,100.00
2023-12-11T04:38:41.423Z,100.00
2023-12-11T04:39:38.231Z,100.00
2023-12-11T04:40:35.031Z,100.00
2023-12-11T04:41:31.770Z,100.00
2023-12-11T04:42:28.399Z,100.00
2023-12-11T04:43:26.493Z,100.00
2023-12-11T04:44:24.352Z,100.00
2023-12-11T04:45:21.019Z,100.00
2023-12-11T04:46:17.788Z,100.00
2023-12-11T04:47:14.443Z,100.00
2023-12-11T04:48:11.163Z,100.00
2023-12-11T04:49:08.006Z,100.00
2023-12-11T04:50:05.087Z,100.00
2023-12-11T04:51:02.094Z,100.00
2023-12-11T04:51:59.085Z,100.00
2023-12-11T04:52:55.903Z,100.00
2023-12-11T04:53:52.612Z,100.00
2023-12-11T04:54:49.253Z,100.00
2023-12-11T04:55:46.141Z,100.00
2023-12-11T04:56:42.853Z,100.00
2023-12-11T04:57:39.612Z,100.00
2023-12-11T04:58:36.322Z,100.00
2023-12-11T04:59:33.019Z,100.00
2023-12-11T05:00:29.667Z,100.00
2023-12-11T05:01:28.053Z,100.00
2023-12-11T05:02:24.915Z,100.00
2023-12-11T05:03:21.835Z,100.00
2023-12-11T05:04:18.559Z,100.00
2023-12-11T05:05:17.660Z,100.00
2023-12-11T05:06:14.369Z,100.00
2023-12-11T05:07:11.213Z,100.00
2023-12-11T05:08:07.885Z,100.00
2023-12-11T05:09:04.562Z,100.00
2023-12-11T05:10:01.253Z,100.00
2023-12-11T05:10:58.328Z,100.00
2023-12-11T05:11:54.970Z,100.00
2023-12-11T05:12:51.661Z,100.00
2023-12-11T05:13:48.342Z,100.00
2023-12-11T05:14:45.035Z,100.00
2023-12-11T05:15:41.819Z,100.00
2023-12-11T05:16:38.649Z,100.00
2023-12-11T05:17:35.739Z,100.00
2023-12-11T05:18:32.595Z,100.00
2023-12-11T05:19:29.374Z,100.00
2023-12-11T05:20:26.095Z,100.00
2023-12-11T05:21:23.308Z,100.00
2023-12-11T05:22:20.136Z,100.00
2023-12-11T05:23:16.821Z,100.00
2023-12-11T05:24:13.551Z,100.00
2023-12-11T05:25:10.367Z,100.00
2023-12-11T05:26:07.056Z,100.00
2023-12-11T05:27:03.832Z,100.00
2023-12-11T05:28:00.602Z,100.00
2023-12-11T05:28:57.656Z,100.00
2023-12-11T05:29:54.361Z,100.00
2023-12-11T05:30:51.105Z,100.00
2023-12-11T05:31:47.773Z,100.00
2023-12-11T05:32:45.488Z,100.00
2023-12-11T05:33:42.575Z,100.00
2023-12-11T05:34:39.422Z,100.00
2023-12-11T05:35:36.286Z,100.00
2023-12-11T05:36:34.641Z,100.00
2023-12-11T05:37:31.566Z,100.00
2023-12-11T05:38:28.474Z,100.00
2023-12-11T05:39:25.159Z,100.00
2023-12-11T05:40:23.847Z,100.00
2023-12-11T05:41:20.948Z,100.00
2023-12-11T05:42:17.628Z,100.00
2023-12-11T05:43:14.513Z,100.00
2023-12-11T05:44:11.277Z,100.00
2023-12-11T05:45:09.637Z,100.00
2023-12-11T05:46:07.393Z,100.00
2023-12-11T05:47:04.191Z,100.00
2023-12-11T05:48:00.932Z,100.00
2023-12-11T05:48:57.756Z,100.00
2023-12-11T05:49:54.592Z,100.00
2023-12-11T05:50:51.368Z,100.00
2023-12-11T05:51:48.174Z,100.00
2023-12-11T05:52:45.743Z,100.00
2023-12-11T05:53:42.588Z,100.00
2023-12-11T05:54:39.304Z,100.00
2023-12-11T05:55:36.091Z,100.00
2023-12-11T05:56:32.826Z,100.00
2023-12-11T05:57:29.661Z,100.00
2023-12-11T05:58:26.503Z,100.00
2023-12-11T05:59:23.233Z,100.00
2023-12-11T06:00:20.335Z,100.00
2023-12-11T06:01:17.163Z,100.00
2023-12-11T06:02:13.961Z,100.00
2023-12-11T06:03:11.592Z,100.00
2023-12-11T06:04:08.514Z,100.00
2023-12-11T06:05:05.723Z,100.00
2023-12-11T06:06:02.521Z,100.00
2023-12-11T06:06:59.182Z,100.00
2023-12-11T06:07:55.888Z,100.00
2023-12-11T06:08:52.673Z,100.00
2023-12-11T06:09:49.701Z,100.00
2023-12-11T06:10:46.442Z,100.00
2023-12-11T06:11:43.102Z,100.00
2023-12-11T06:12:39.853Z,100.00
2023-12-11T06:13:36.636Z,100.00
2023-12-11T06:14:33.350Z,100.00
2023-12-11T06:15:30.054Z,100.00
2023-12-11T06:16:26.700Z,100.00
2023-12-11T06:17:23.405Z,100.00
2023-12-11T06:18:20.335Z,100.00
2023-12-11T06:19:17.157Z,100.00
2023-12-11T06:20:13.916Z,100.00
2023-12-11T06:21:20.805Z,100.00
2023-12-11T06:22:17.604Z,100.00
2023-12-11T06:23:14.336Z,100.00
2023-12-11T06:24:10.996Z,100.00
2023-12-11T06:25:08.408Z,100.00
2023-12-11T06:26:05.182Z,100.00
2023-12-11T06:27:01.865Z,100.00
2023-12-11T06:27:58.667Z,100.00
2023-12-11T06:28:55.554Z,100.00
2023-12-11T06:29:52.403Z,100.00
2023-12-11T06:30:49.182Z,100.00
2023-12-11T06:31:45.892Z,100.00
2023-12-11T06:32:42.675Z,100.00
2023-12-11T06:33:41.571Z,100.00
2023-12-11T06:34:39.277Z,100.00
2023-12-11T06:35:36.063Z,100.00
2023-12-11T06:36:32.996Z,100.00
2023-12-11T06:37:29.973Z,100.00
2023-12-11T06:38:26.813Z,100.00
2023-12-11T06:39:24.268Z,100.00
2023-12-11T06:40:21.064Z,100.00
2023-12-11T06:41:18.710Z,100.00
2023-12-11T06:42:15.578Z,100.00
2023-12-11T06:43:12.280Z,100.00
2023-12-11T06:44:10.860Z,100.00
2023-12-11T06:45:09.903Z,100.00
2023-12-11T06:46:07.057Z,100.00
2023-12-11T06:47:03.887Z,100.00
2023-12-11T06:48:00.590Z,100.00
2023-12-11T06:49:00.745Z,100.00
2023-12-11T06:49:57.705Z,100.00
2023-12-11T06:50:57.937Z,100.00
2023-12-11T06:51:56.745Z,100.00
2023-12-11T06:52:53.524Z,100.00
2023-12-11T06:53:50.566Z,100.00
2023-12-11T06:54:47.587Z,100.00
2023-12-11T06:55:44.226Z,100.00
2023-12-11T06:56:40.970Z,100.00
2023-12-11T06:57:37.712Z,100.00
2023-12-11T06:58:34.478Z,100.00
2023-12-11T06:59:31.376Z,100.00
2023-12-11T07:00:28.130Z,100.00
2023-12-11T07:01:32.470Z,100.00
2023-12-11T07:02:29.335Z,100.00
2023-12-11T07:03:26.104Z,100.00
2023-12-11T07:04:22.919Z,100.00
2023-12-11T07:05:19.949Z,100.00
2023-12-11T07:06:18.831Z,100.00
2023-12-11T07:07:16.029Z,100.00
2023-12-11T07:08:12.736Z,100.00
2023-12-11T07:09:11.314Z,100.00
2023-12-11T07:10:09.087Z,100.00
2023-12-11T07:11:05.928Z,100.00
2023-12-11T07:12:02.800Z,100.00
2023-12-11T07:12:59.551Z,100.00
2023-12-11T07:13:56.537Z,100.00
2023-12-11T07:14:53.516Z,100.00
2023-12-11T07:15:50.286Z,100.00
2023-12-11T07:16:47.083Z,100.00
2023-12-11T07:17:43.811Z,100.00
2023-12-11T07:18:40.814Z,100.00
2023-12-11T07:19:37.713Z,100.00
2023-12-11T07:20:34.956Z,100.00
2023-12-11T07:21:31.748Z,100.00
2023-12-11T07:22:28.518Z,100.00
2023-12-11T07:23:25.142Z,100.00
2023-12-11T07:24:21.849Z,100.00
2023-12-11T07:25:18.834Z,100.00
2023-12-11T07:26:15.917Z,100.00
2023-12-11T07:27:12.621Z,100.00
2023-12-11T07:28:09.358Z,100.00
2023-12-11T07:29:08.863Z,100.00
2023-12-11T07:30:06.268Z,99.91
2023-12-11T07:31:04.528Z,99.54
2023-12-11T07:32:01.197Z,100.00
2023-12-11T07:32:57.961Z,100.00
2023-12-11T07:33:57.046Z,100.00
2023-12-11T07:34:54.208Z,100.00
2023-12-11T07:35:50.985Z,100.00
2023-12-11T07:36:47.720Z,100.00
2023-12-11T07:37:44.425Z,100.00
2023-12-11T07:38:41.189Z,100.00
2023-12-11T07:39:37.889Z,100.00
2023-12-11T07:40:34.608Z,100.00
2023-12-11T07:41:31.291Z,99.81
2023-12-11T07:42:27.964Z,100.00
2023-12-11T07:43:25.086Z,100.00
2023-12-11T07:44:22.660Z,100.00
2023-12-11T07:45:19.483Z,99.60
2023-12-11T07:46:21.201Z,99.07
2023-12-11T07:47:17.943Z,98.63
2023-12-11T07:48:14.795Z,98.68
2023-12-11T07:49:15.057Z,99.62
2023-12-11T07:50:12.042Z,98.35
2023-12-11T07:51:18.052Z,98.44
2023-12-11T07:52:15.157Z,98.29
2023-12-11T07:53:11.848Z,97.91
2023-12-11T07:54:08.594Z,97.60
2023-12-11T07:55:06.779Z,98.12
2023-12-11T07:56:05.018Z,97.03
2023-12-11T07:57:01.667Z,96.64
2023-12-11T07:57:59.275Z,96.91
2023-12-11T07:58:56.004Z,97.22
2023-12-11T07:59:53.566Z,97.00
2023-12-11T08:00:50.308Z,97.10
2023-12-11T08:01:47.382Z,96.67
2023-12-11T08:02:44.098Z,95.88
2023-12-11T08:03:41.424Z,94.86
2023-12-11T08:04:41.478Z,95.53
2023-12-11T08:05:38.641Z,95.16
2023-12-11T08:06:40.921Z,95.15
2023-12-11T08:07:38.410Z,95.08
2023-12-11T08:08:41.336Z,94.61
2023-12-11T08:09:39.002Z,94.61
2023-12-11T08:10:36.266Z,94.92
2023-12-11T08:11:33.042Z,94.33
2023-12-11T08:12:30.145Z,93.95
2023-12-11T08:13:26.825Z,93.75
2023-12-11T08:14:23.495Z,93.98
2023-12-11T08:15:20.236Z,94.12
2023-12-11T08:16:17.754Z,94.02
2023-12-11T08:17:14.578Z,93.83
2023-12-11T08:18:11.365Z,94.05
2023-12-11T08:19:08.263Z,93.21
2023-12-11T08:20:09.746Z,92.76
2023-12-11T08:21:08.200Z,93.07
2023-12-11T08:22:05.525Z,91.35
2023-12-11T08:23:02.223Z,90.99
2023-12-11T08:23:58.883Z,91.17
2023-12-11T08:24:55.872Z,90.62
2023-12-11T08:25:52.643Z,90.61
2023-12-11T08:26:49.335Z,90.80
2023-12-11T08:27:46.145Z,90.65
2023-12-11T08:28:42.876Z,91.23
2023-12-11T08:29:39.530Z,89.85
2023-12-11T08:30:36.233Z,90.14
2023-12-11T08:31:33.003Z,89.46
2023-12-11T08:32:29.823Z,89.63
2023-12-11T08:33:26.643Z,89.54
2023-12-11T08:34:23.496Z,89.04
2023-12-11T08:35:20.203Z,89.21
2023-12-11T08:36:17.063Z,89.73
2023-12-11T08:37:13.833Z,88.94
2023-12-11T08:38:10.735Z,89.11
2023-12-11T08:39:07.797Z,88.96
2023-12-11T08:40:06.619Z,89.34
2023-12-11T08:41:03.813Z,89.64
2023-12-11T08:42:00.584Z,89.33
2023-12-11T08:42:57.403Z,89.60
2023-12-11T08:43:54.229Z,89.67
2023-12-11T08:44:50.865Z,89.18
2023-12-11T08:45:47.681Z,89.79
2023-12-11T08:46:44.712Z,89.76
2023-12-11T08:47:44.282Z,88.59
2023-12-11T08:48:41.623Z,88.14
2023-12-11T08:49:38.495Z,87.96
2023-12-11T08:50:35.977Z,88.45
2023-12-11T08:51:33.891Z,87.90
2023-12-11T08:52:30.872Z,88.42
2023-12-11T08:53:27.521Z,88.33
2023-12-11T08:54:24.193Z,88.78
2023-12-11T08:55:21.031Z,87.81
2023-12-11T08:56:20.756Z,88.04
2023-12-11T08:57:17.518Z,87.86
2023-12-11T08:58:14.332Z,87.92
2023-12-11T08:59:11.048Z,88.06
2023-12-11T09:00:09.009Z,87.69
2023-12-11T09:01:06.545Z,86.88
2023-12-11T09:02:03.502Z,87.65
2023-12-11T09:03:00.336Z,88.61
2023-12-11T09:03:57.160Z,88.50
2023-12-11T09:04:54.381Z,88.68
2023-12-11T09:05:52.034Z,88.46
2023-12-11T09:06:49.477Z,89.12
2023-12-11T09:07:46.351Z,88.13
2023-12-11T09:08:43.595Z,88.41
2023-12-11T09:09:40.377Z,87.66
2023-12-11T09:10:37.326Z,88.22
2023-12-11T09:11:33.990Z,88.00
2023-12-11T09:12:33.804Z,87.95
2023-12-11T09:13:30.942Z,87.21
2023-12-11T09:14:27.580Z,86.66
2023-12-11T09:15:24.251Z,86.76
2023-12-11T09:16:21.024Z,87.22
2023-12-11T09:17:17.773Z,85.60
2023-12-11T09:18:14.612Z,85.73
2023-12-11T09:19:11.384Z,86.65
2023-12-11T09:20:11.304Z,86.39
2023-12-11T09:21:08.238Z,86.05
2023-12-11T09:22:05.200Z,84.69
2023-12-11T09:23:02.108Z,84.61
2023-12-11T09:23:58.838Z,85.46
2023-12-11T09:24:55.652Z,85.93
2023-12-11T09:25:52.355Z,86.22
2023-12-11T09:26:48.982Z,85.48
2023-12-11T09:27:47.465Z,85.47
2023-12-11T09:28:51.706Z,85.13
2023-12-11T09:29:51.955Z,85.41
2023-12-11T09:30:48.751Z,86.22
2023-12-11T09:31:45.783Z,86.17
2023-12-11T09:32:43.097Z,85.99
2023-12-11T09:33:41.783Z,86.58
2023-12-11T09:34:38.993Z,85.97
2023-12-11T09:35:36.139Z,84.50
2023-12-11T09:36:32.885Z,81.68
2023-12-11T09:37:29.894Z,82.71
2023-12-11T09:38:26.714Z,82.03
2023-12-11T09:39:23.736Z,80.83
2023-12-11T09:40:20.860Z,78.96
2023-12-11T09:41:17.649Z,78.29
2023-12-11T09:42:18.501Z,76.44
2023-12-11T09:43:18.074Z,77.76
2023-12-11T09:44:14.723Z,76.54
2023-12-11T09:45:13.155Z,76.74
2023-12-11T09:46:17.373Z,76.85
2023-12-11T09:47:27.538Z,74.88
2023-12-11T09:48:24.472Z,75.99
2023-12-11T09:49:22.133Z,74.39
2023-12-11T09:50:19.912Z,75.74
2023-12-11T09:51:17.904Z,75.01
2023-12-11T09:52:14.879Z,75.49
2023-12-11T09:53:11.767Z,74.39
2023-12-11T09:54:09.264Z,73.85
2023-12-11T09:55:06.488Z,74.00
2023-12-11T09:56:04.186Z,74.45
2023-12-11T09:57:02.192Z,75.15
2023-12-11T09:58:00.027Z,76.30
2023-12-11T09:58:57.720Z,75.97
2023-12-11T09:59:54.671Z,75.90
2023-12-11T10:00:51.589Z,76.43
2023-12-11T10:01:49.755Z,76.66
2023-12-11T10:02:51.935Z,74.95
2023-12-11T10:03:48.736Z,74.57
2023-12-11T10:05:05.636Z,73.96
2023-12-11T10:06:04.401Z,75.65
2023-12-11T10:07:01.159Z,73.88
2023-12-11T10:07:57.880Z,73.10
2023-12-11T10:08:54.997Z,75.21
2023-12-11T10:09:51.776Z,74.98
2023-12-11T10:10:48.447Z,75.69
2023-12-11T10:11:58.503Z,73.49
2023-12-11T10:12:56.616Z,74.58
2023-12-11T10:13:53.512Z,73.67
2023-12-11T10:15:02.347Z,73.83
2023-12-11T10:15:59.510Z,73.00
2023-12-11T10:16:56.353Z,75.38
2023-12-11T10:18:14.059Z,74.06
2023-12-11T10:19:11.152Z,73.05
2023-12-11T10:20:16.566Z,73.50
2023-12-11T10:21:13.311Z,73.30
2023-12-11T10:22:27.470Z,75.13
2023-12-11T10:23:24.826Z,75.37
2023-12-11T10:24:21.620Z,75.77
2023-12-11T10:25:29.465Z,74.48
2023-12-11T10:26:26.187Z,74.57
2023-12-11T10:27:27.605Z,75.43
2023-12-11T10:28:25.263Z,75.58
2023-12-11T10:29:24.569Z,74.82
2023-12-11T10:30:21.754Z,75.47
2023-12-11T10:31:18.600Z,75.01
2023-12-11T10:32:15.291Z,75.27
2023-12-11T10:33:13.101Z,74.75
2023-12-11T10:34:10.080Z,73.92
2023-12-11T10:35:08.092Z,73.58
2023-12-11T10:36:13.477Z,74.21
2023-12-11T10:37:19.909Z,73.52
2023-12-11T10:38:41.227Z,73.95
2023-12-11T10:40:33.949Z,72.88
2023-12-11T10:41:30.741Z,72.63
2023-12-11T10:42:28.747Z,73.76
2023-12-11T10:43:25.619Z,73.53
2023-12-11T10:44:39.432Z,73.10
2023-12-11T10:45:41.295Z,72.36
2023-12-11T10:46:39.218Z,71.76
2023-12-11T10:47:36.418Z,72.04
2023-12-11T10:48:33.364Z,72.62
2023-12-11T10:49:30.732Z,72.21
2023-12-11T10:50:28.154Z,72.92
2023-12-11T10:51:25.789Z,72.61
2023-12-11T10:52:22.518Z,71.59
2023-12-11T10:53:20.359Z,71.97
2023-12-11T10:54:17.574Z,72.68
2023-12-11T10:55:14.652Z,72.65
2023-12-11T10:56:11.874Z,72.32
2023-12-11T10:57:22.624Z,71.09
2023-12-11T10:58:19.668Z,70.96
2023-12-11T10:59:16.975Z,71.54
2023-12-11T11:00:15.095Z,70.28
2023-12-11T11:01:13.652Z,70.76
2023-12-11T11:02:14.431Z,70.99
2023-12-11T11:03:12.845Z,71.64
2023-12-11T11:04:11.018Z,69.41
2023-12-11T11:05:07.780Z,70.43
2023-12-11T11:06:04.994Z,69.54
2023-12-11T11:07:08.474Z,70.54
2023-12-11T11:08:23.396Z,71.49
2023-12-11T11:09:51.432Z,71.59
2023-12-11T11:10:55.629Z,70.77
2023-12-11T11:12:03.756Z,71.89
2023-12-11T11:13:10.221Z,71.14
2023-12-11T11:14:39.494Z,69.92
2023-12-11T11:15:36.301Z,71.45
2023-12-11T11:16:55.645Z,70.85
2023-12-11T11:18:11.074Z,70.99
2023-12-11T11:19:08.275Z,71.38
2023-12-11T11:20:13.969Z,71.40
2023-12-11T11:21:13.327Z,70.71
2023-12-11T11:22:10.117Z,71.40
2023-12-11T11:23:19.838Z,71.09
2023-12-11T11:24:27.651Z,69.47
2023-12-11T11:25:31.199Z,69.89
2023-12-11T11:26:33.089Z,70.79
2023-12-11T11:27:42.277Z,70.77
2023-12-11T11:28:45.441Z,69.82
2023-12-11T11:29:44.663Z,69.24
2023-12-11T11:30:47.945Z,69.65
2023-12-11T11:31:50.458Z,69.18
2023-12-11T11:32:55.394Z,69.27
2023-12-11T11:33:53.840Z,69.02
2023-12-11T11:34:50.905Z,69.54
2023-12-11T11:35:48.105Z,68.58
2023-12-11T11:36:49.959Z,69.23
2023-12-11T11:37:51.434Z,69.06
2023-12-11T11:38:52.424Z,69.87
2023-12-11T11:40:02.209Z,69.47
2023-12-11T11:41:00.070Z,69.26
2023-12-11T11:41:57.875Z,69.33
2023-12-11T11:42:54.518Z,69.43
2023-12-11T11:43:59.028Z,69.11
2023-12-11T11:44:58.529Z,69.56
2023-12-11T11:45:56.865Z,68.95
2023-12-11T11:46:55.578Z,69.29
2023-12-11T11:47:52.817Z,69.29
2023-12-11T11:48:49.622Z,69.80
2023-12-11T11:49:46.512Z,69.16
2023-12-11T11:50:54.963Z,69.39
2023-12-11T11:51:51.643Z,69.50
2023-12-11T11:52:55.225Z,69.30
2023-12-11T11:54:00.963Z,68.42
2023-12-11T11:55:19.933Z,69.11
2023-12-11T11:56:16.757Z,67.93
2023-12-11T11:57:13.472Z,67.37
2023-12-11T11:58:14.650Z,68.73
2023-12-11T11:59:11.323Z,68.94
2023-12-11T12:00:08.527Z,68.90
2023-12-11T12:01:06.050Z,68.73
2023-12-11T12:02:02.930Z,68.96
2023-12-11T12:03:01.973Z,68.58
2023-12-11T12:03:58.796Z,68.07
2023-12-11T12:04:56.620Z,68.75
2023-12-11T12:05:57.927Z,68.75
2023-12-11T12:06:58.831Z,68.07
2023-12-11T12:07:55.798Z,67.20
2023-12-11T12:08:52.701Z,68.30
2023-12-11T12:10:00.435Z,67.78
2023-12-11T12:11:00.541Z,67.95
2023-12-11T12:11:59.095Z,67.40
2023-12-11T12:12:59.793Z,68.12